createdAt,value
2022-11-27T00:00:29.926Z,102651.16
2022-11-27T00:02:56.567Z,102644.34
2022-11-27T00:05:23.140Z,102642.63
2022-11-27T00:07:49.756Z,102639.63
2022-11-27T00:10:16.423Z,102643.41
2022-11-27T00:12:42.868Z,102634.53
2022-11-27T00:15:13.386Z,102626.13
2022-11-27T00:17:42.615Z,102619.09
2022-11-27T00:20:09.473Z,102622.72
2022-11-27T00:22:35.990Z,102620.50
2022-11-27T00:25:02.480Z,102617.81
2022-11-27T00:27:28.965Z,102615.09
2022-11-27T00:29:55.476Z,102610.03
2022-11-27T00:32:21.956Z,102608.13
2022-11-27T00:34:48.438Z,102597.31
2022-11-27T00:37:15.134Z,102601.09
2022-11-27T00:39:41.671Z,102600.94
2022-11-27T00:42:08.156Z,102599.31
2022-11-27T00:44:34.914Z,102600.13
2022-11-27T00:47:01.546Z,102600.75
2022-11-27T00:49:28.622Z,102601.25
2022-11-27T00:51:55.189Z,102598.53
2022-11-27T00:54:22.843Z,102600.56
2022-11-27T00:56:49.516Z,102593.75
2022-11-27T00:59:16.070Z,102594.19
2022-11-27T01:01:43.716Z,102598.78
2022-11-27T01:04:15.059Z,102588.47
2022-11-27T01:06:42.609Z,102585.75
2022-11-27T01:09:11.659Z,102581.28
2022-11-27T01:11:38.360Z,102585.69
2022-11-27T01:14:09.012Z,102579.81
2022-11-27T01:16:38.544Z,102591.09
2022-11-27T01:19:07.800Z,102573.09
2022-11-27T01:21:34.987Z,102562.13
2022-11-27T01:24:04.513Z,102560.84
2022-11-27T01:26:31.311Z,102559.72
2022-11-27T01:28:59.892Z,102548.31
2022-11-27T01:31:29.803Z,102550.84
2022-11-27T01:33:59.656Z,102558.44
2022-11-27T01:36:26.751Z,102562.22
2022-11-27T01:38:53.314Z,102558.75
2022-11-27T01:41:21.118Z,102551.63
2022-11-27T01:43:51.828Z,102548.00
2022-11-27T01:46:38.321Z,102545.13
2022-11-27T01:49:08.840Z,102531.63
2022-11-27T01:51:39.528Z,102527.03
2022-11-27T01:54:06.302Z,102527.03
2022-11-27T01:56:32.796Z,102507.00
2022-11-27T01:58:59.939Z,102502.88
2022-11-27T02:01:26.468Z,102491.59
2022-11-27T02:03:54.602Z,102495.09
2022-11-27T02:06:21.063Z,102487.00
2022-11-27T02:08:48.792Z,102481.59
2022-11-27T02:11:25.732Z,102482.38
2022-11-27T02:14:07.468Z,102480.19
2022-11-27T02:16:45.643Z,102470.94
2022-11-27T02:19:26.922Z,102465.88
2022-11-27T02:22:03.304Z,102457.28
2022-11-27T02:24:44.950Z,102454.88
2022-11-27T02:27:21.167Z,102452.69
2022-11-27T02:29:54.371Z,102462.69
2022-11-27T02:32:39.572Z,102460.00
2022-11-27T02:35:18.034Z,102461.56
2022-11-27T02:37:56.653Z,102467.75
2022-11-27T02:40:42.761Z,102473.16
2022-11-27T02:43:17.785Z,102476.69
2022-11-27T02:45:47.584Z,102473.34
2022-11-27T02:48:18.126Z,102471.44
2022-11-27T02:50:46.593Z,102459.56
2022-11-27T02:53:18.763Z,102461.13
2022-11-27T02:55:46.735Z,102460.16
2022-11-27T02:58:16.792Z,102454.75
2022-11-27T03:00:46.282Z,102462.25
2022-11-27T03:03:18.474Z,102457.63
2022-11-27T03:05:48.465Z,102458.91
2022-11-27T03:08:22.305Z,102455.13
2022-11-27T03:11:03.133Z,102452.44
2022-11-27T03:13:32.852Z,102447.31
2022-11-27T03:16:12.255Z,102438.44
2022-11-27T03:18:44.459Z,102448.13
2022-11-27T03:21:34.534Z,102448.59
2022-11-27T03:24:01.548Z,102455.91
2022-11-27T03:26:28.457Z,102454.50
2022-11-27T03:28:57.033Z,102457.50
2022-11-27T03:31:24.080Z,102463.69
2022-11-27T03:33:51.213Z,102459.91
2022-11-27T03:36:20.562Z,102453.69
2022-11-27T03:38:49.095Z,102447.19
2022-11-27T03:41:27.730Z,102445.09
2022-11-27T03:44:08.645Z,102436.22
2022-11-27T03:46:55.958Z,102435.72
2022-11-27T03:49:44.043Z,102429.19
2022-11-27T03:52:22.832Z,102430.31
2022-11-27T03:54:56.624Z,102432.03
2022-11-27T03:57:33.807Z,102422.81
2022-11-27T04:00:04.512Z,102424.44
2022-11-27T04:02:40.286Z,102426.31
2022-11-27T04:05:07.172Z,102420.91
2022-11-27T04:07:33.655Z,102411.22
2022-11-27T04:10:00.200Z,102418.06
2022-11-27T04:12:26.678Z,102414.56
2022-11-27T04:14:53.191Z,102439.19
2022-11-27T04:17:19.707Z,102431.06
2022-11-27T04:19:46.236Z,102430.78
2022-11-27T04:22:12.681Z,102428.38
2022-11-27T04:24:39.385Z,102434.56
2022-11-27T04:27:06.099Z,102429.66
2022-11-27T04:29:32.724Z,102432.66
2022-11-27T04:31:59.271Z,102431.56
2022-11-27T04:34:25.754Z,102431.84
2022-11-27T04:36:52.226Z,102430.78
2022-11-27T04:39:18.806Z,102419.16
2022-11-27T04:41:46.623Z,102416.44
2022-11-27T04:44:13.455Z,102408.66
2022-11-27T04:46:40.016Z,102398.97
2022-11-27T04:49:07.055Z,102408.66
2022-11-27T04:51:33.874Z,102401.66
2022-11-27T04:54:00.360Z,102395.16
2022-11-27T04:56:26.850Z,102395.97
2022-11-27T04:58:53.296Z,102396.75
2022-11-27T05:01:20.009Z,102389.75
2022-11-27T05:03:48.789Z,102381.97
2022-11-27T05:06:15.845Z,102385.94
2022-11-27T05:08:42.389Z,102376.25
2022-11-27T05:11:12.535Z,102377.06
2022-11-27T05:13:39.411Z,102374.34
2022-11-27T05:16:06.443Z,102367.34
2022-11-27T05:18:33.540Z,102364.34
2022-11-27T05:21:02.597Z,102368.31
2022-11-27T05:23:29.679Z,102362.13
2022-11-27T05:25:56.209Z,102354.31
2022-11-27T05:28:26.875Z,102358.16
2022-11-27T05:30:53.666Z,102349.75
2022-11-27T05:33:20.143Z,102349.41
2022-11-27T05:35:46.804Z,102346.69
2022-11-27T05:38:13.287Z,102348.31
2022-11-27T05:40:40.020Z,102339.88
2022-11-27T05:43:07.047Z,102345.75
2022-11-27T05:45:33.549Z,102338.00
2022-11-27T05:48:00.016Z,102341.47
2022-11-27T05:50:26.527Z,102346.25
2022-11-27T05:52:52.998Z,102334.97
2022-11-27T05:55:19.506Z,102329.88
2022-11-27T05:57:46.014Z,102332.41
2022-11-27T06:00:14.174Z,102333.19
2022-11-27T06:02:40.766Z,102332.91
2022-11-27T06:05:08.039Z,102319.22
2022-11-27T06:07:34.659Z,102330.97
2022-11-27T06:10:01.690Z,102327.19
2022-11-27T06:12:28.132Z,102334.16
2022-11-27T06:14:54.592Z,102331.47
2022-11-27T06:17:21.095Z,102329.06
2022-11-27T06:19:47.625Z,102332.09
2022-11-27T06:22:15.168Z,102327.78
2022-11-27T06:24:41.986Z,102331.31
2022-11-27T06:27:08.730Z,102325.91
2022-11-27T06:29:37.258Z,102322.88
2022-11-27T06:32:04.546Z,102312.88
2022-11-27T06:34:31.122Z,102302.06
2022-11-27T06:36:57.651Z,102305.09
2022-11-27T06:39:24.143Z,102301.91
2022-11-27T06:41:50.592Z,102305.88
2022-11-27T06:44:17.076Z,102300.97
2022-11-27T06:46:43.591Z,102292.88
2022-11-27T06:49:10.231Z,102297.47
2022-11-27T06:51:36.700Z,102295.88
2022-11-27T06:54:03.741Z,102297.78
2022-11-27T06:56:32.023Z,102296.50
2022-11-27T06:59:00.943Z,102296.50
2022-11-27T07:01:30.466Z,102300.00
2022-11-27T07:03:57.567Z,102305.88
2022-11-27T07:06:26.644Z,102290.47
2022-11-27T07:08:53.856Z,102287.47
2022-11-27T07:11:23.214Z,102278.22
2022-11-27T07:13:50.892Z,102276.66
2022-11-27T07:16:18.599Z,102267.75
2022-11-27T07:18:48.331Z,102262.38
2022-11-27T07:21:15.226Z,102269.66
2022-11-27T07:23:42.068Z,102258.84
2022-11-27T07:26:11.406Z,102252.97
2022-11-27T07:28:38.605Z,102252.97
2022-11-27T07:31:05.966Z,102245.97
2022-11-27T07:33:32.584Z,102241.06
2022-11-27T07:36:02.683Z,102238.34
2022-11-27T07:38:29.223Z,102232.66
2022-11-27T07:40:58.895Z,102235.66
2022-11-27T07:43:25.437Z,102231.84
2022-11-27T07:45:52.068Z,102228.34
2022-11-27T07:48:18.637Z,102228.97
2022-11-27T07:50:45.314Z,102229.78
2022-11-27T07:53:11.839Z,102228.19
2022-11-27T07:55:41.192Z,102228.97
2022-11-27T07:58:08.610Z,102227.84
2022-11-27T08:00:36.075Z,102230.06
2022-11-27T08:03:02.851Z,102220.88
2022-11-27T08:05:29.400Z,102235.16
2022-11-27T08:07:56.372Z,102231.03
2022-11-27T08:10:23.080Z,102222.94
2022-11-27T08:12:49.632Z,102223.72
2022-11-27T08:15:16.149Z,102220.72
2022-11-27T08:17:42.631Z,102212.78
2022-11-27T08:20:09.710Z,102210.09
2022-11-27T08:22:37.643Z,102208.66
2022-11-27T08:25:05.373Z,102201.34
2022-11-27T08:27:33.283Z,102208.19
2022-11-27T08:30:00.476Z,102203.91
2022-11-27T08:32:27.083Z,102206.25
2022-11-27T08:34:53.552Z,102200.56
2022-11-27T08:37:21.139Z,102215.34
2022-11-27T08:39:48.001Z,102211.84
2022-11-27T08:42:14.592Z,102212.94
2022-11-27T08:44:41.303Z,102208.84
2022-11-27T08:47:08.187Z,102207.41
2022-11-27T08:49:34.667Z,102208.97
2022-11-27T08:52:01.172Z,102205.47
2022-11-27T08:54:27.807Z,102205.47
2022-11-27T08:56:54.358Z,102203.56
2022-11-27T08:59:20.807Z,102213.59
2022-11-27T09:01:47.343Z,102212.81
2022-11-27T09:04:13.862Z,102214.06
2022-11-27T09:06:41.221Z,102218.69
2022-11-27T09:09:08.065Z,102217.56
2022-11-27T09:11:35.934Z,102212.63
2022-11-27T09:14:04.463Z,102213.13
2022-11-27T09:16:31.455Z,102213.59
2022-11-27T09:18:58.655Z,102205.50
2022-11-27T09:21:28.171Z,102197.53
2022-11-27T09:23:55.872Z,102200.22
2022-11-27T09:26:23.919Z,102199.44
2022-11-27T09:28:50.492Z,102202.31
2022-11-27T09:31:17.143Z,102194.22
2022-11-27T09:33:44.291Z,102198.97
2022-11-27T09:36:14.873Z,102197.88
2022-11-27T09:38:42.563Z,102194.03
2022-11-27T09:41:12.131Z,102192.94
2022-11-27T09:43:48.635Z,102196.44
2022-11-27T09:46:27.043Z,102187.19
2022-11-27T09:48:55.042Z,102189.59
2022-11-27T09:51:28.412Z,102179.72
2022-11-27T09:54:03.396Z,102179.88
2022-11-27T09:56:32.200Z,102174.94
2022-11-27T09:59:01.643Z,102172.22
2022-11-27T10:01:42.001Z,102170.78
2022-11-27T10:04:14.382Z,102171.63
2022-11-27T10:07:14.897Z,102157.75
2022-11-27T10:10:07.642Z,102160.16
2022-11-27T10:12:46.305Z,102156.00
2022-11-27T10:15:33.039Z,102157.25
2022-11-27T10:18:05.801Z,102152.66
2022-11-27T10:20:39.755Z,102156.63
2022-11-27T10:23:19.882Z,102149.78
2022-11-27T10:25:50.728Z,102140.06
2022-11-27T10:28:26.597Z,102137.06
2022-11-27T10:30:58.091Z,102135.97
2022-11-27T10:33:36.686Z,102132.13
2022-11-27T10:36:03.351Z,102135.00
2022-11-27T10:38:41.351Z,102132.28
2022-11-27T10:41:48.135Z,102138.94
2022-11-27T10:44:25.716Z,102134.31
2022-11-27T10:46:54.243Z,102125.44
2022-11-27T10:49:20.742Z,102117.78
2022-11-27T10:51:47.209Z,102112.38
2022-11-27T10:55:03.770Z,102109.03
2022-11-27T10:57:52.600Z,102102.16
2022-11-27T11:00:22.841Z,102098.81
2022-11-27T11:02:49.821Z,102099.75
2022-11-27T11:06:04.182Z,102096.72
2022-11-27T11:08:19.750Z,102085.59
2022-11-27T11:11:02.595Z,102080.66
2022-11-27T11:13:31.210Z,102071.88
2022-11-27T11:16:00.400Z,102077.44
2022-11-27T11:18:32.498Z,102083.94
2022-11-27T11:21:01.921Z,102075.50
2022-11-27T11:23:33.802Z,102065.94
2022-11-27T11:26:05.440Z,102062.91
2022-11-27T11:28:40.992Z,102059.56
2022-11-27T11:31:12.178Z,102043.47
2022-11-27T11:33:53.495Z,102036.28
2022-11-27T11:36:20.361Z,102039.88
2022-11-27T11:38:47.973Z,102026.81
2022-11-27T11:41:18.025Z,102028.91
2022-11-27T11:43:57.801Z,102034.09
2022-11-27T11:46:29.842Z,102037.59
2022-11-27T11:48:58.111Z,102012.44
2022-11-27T11:51:44.340Z,102015.16
2022-11-27T11:54:29.187Z,102006.72
2022-11-27T11:57:00.386Z,102010.22
2022-11-27T11:59:47.298Z,102000.31
2022-11-27T12:02:15.889Z,101999.53
2022-11-27T12:05:03.667Z,102002.56
2022-11-27T12:07:48.886Z,101996.00
2022-11-27T12:10:23.707Z,101990.28
2022-11-27T12:13:04.881Z,101975.59
2022-11-27T12:15:36.684Z,101969.06
2022-11-27T12:18:06.307Z,101970.31
2022-11-27T12:20:57.159Z,101968.53
2022-11-27T12:23:29.676Z,101961.19
2022-11-27T12:26:07.486Z,101958.50
2022-11-27T12:28:57.483Z,101940.34
2022-11-27T12:31:39.510Z,101937.75
2022-11-27T12:34:07.454Z,101925.78
2022-11-27T12:36:40.111Z,101932.03
2022-11-27T12:39:24.097Z,101936.63
2022-11-27T12:42:01.092Z,101935.84
2022-11-27T12:44:50.572Z,101935.84
2022-11-27T12:47:26.698Z,101930.75
2022-11-27T12:50:00.628Z,101925.00
2022-11-27T12:52:37.740Z,101916.09
2022-11-27T12:55:22.137Z,101910.69
2022-11-27T12:57:53.845Z,101906.06
2022-11-27T13:00:24.537Z,101900.00
2022-11-27T13:03:16.046Z,101903.34
2022-11-27T13:05:49.721Z,101905.28
2022-11-27T13:08:21.952Z,101906.84
2022-11-27T13:11:06.406Z,101900.63
2022-11-27T13:13:40.500Z,101897.94
2022-11-27T13:16:20.966Z,101894.44
2022-11-27T13:18:55.195Z,101890.13
2022-11-27T13:21:27.176Z,101887.09
2022-11-27T13:23:54.434Z,101883.63
2022-11-27T13:26:30.430Z,101883.94
2022-11-27T13:29:00.573Z,101878.88
2022-11-27T13:31:31.142Z,101879.97
2022-11-27T13:34:02.469Z,101876.81
2022-11-27T13:36:37.514Z,101870.63
2022-11-27T13:39:04.284Z,101869.47
2022-11-27T13:41:41.219Z,101873.31
2022-11-27T13:44:25.346Z,101862.81
2022-11-27T13:46:56.232Z,101858.19
2022-11-27T13:49:27.976Z,101861.72
2022-11-27T13:52:07.341Z,101849.63
2022-11-27T13:54:34.369Z,101850.44
2022-11-27T13:57:16.458Z,101841.06
2022-11-27T14:00:10.006Z,101836.28
2022-11-27T14:02:44.318Z,101829.31
2022-11-27T14:05:12.868Z,101824.56
2022-11-27T14:07:50.214Z,101821.53
2022-11-27T14:10:22.650Z,101821.84
2022-11-27T14:12:56.780Z,101819.13
2022-11-27T14:15:26.925Z,101812.94
2022-11-27T14:18:06.119Z,101809.47
2022-11-27T14:20:36.296Z,101812.16
2022-11-27T14:23:18.275Z,101806.28
2022-11-27T14:25:45.004Z,101807.44
2022-11-27T14:28:21.528Z,101806.63
2022-11-27T14:30:50.653Z,101795.00
2022-11-27T14:33:24.063Z,101791.50
2022-11-27T14:35:53.795Z,101794.91
2022-11-27T14:38:20.884Z,101787.09
2022-11-27T14:40:49.341Z,101776.94
2022-11-27T14:43:19.288Z,101779.31
2022-11-27T14:45:49.565Z,101777.41
2022-11-27T14:48:20.975Z,101770.41
2022-11-27T14:50:49.127Z,101769.97
2022-11-27T14:53:16.710Z,101762.63
2022-11-27T14:55:43.632Z,101758.81
2022-11-27T14:58:19.906Z,101753.72
2022-11-27T15:01:06.439Z,101751.69
2022-11-27T15:03:33.857Z,101757.91
2022-11-27T15:06:03.306Z,101755.50
2022-11-27T15:08:35.464Z,101750.44
2022-11-27T15:11:04.905Z,101748.84
2022-11-27T15:13:34.541Z,101750.88
2022-11-27T15:16:05.978Z,101748.53
2022-11-27T15:18:36.188Z,101755.84
2022-11-27T15:21:09.297Z,101747.72
2022-11-27T15:23:36.473Z,101736.47
2022-11-27T15:26:02.955Z,101737.25
2022-11-27T15:28:35.908Z,101731.84
2022-11-27T15:31:23.824Z,101731.84
2022-11-27T15:34:00.412Z,101722.59
2022-11-27T15:36:27.475Z,101719.09
2022-11-27T15:39:05.540Z,101713.69
2022-11-27T15:41:32.122Z,101700.16
2022-11-27T15:43:58.695Z,101705.13
2022-11-27T15:46:30.178Z,101697.31
2022-11-27T15:48:57.309Z,101695.88
2022-11-27T15:51:24.186Z,101693.97
2022-11-27T15:53:50.868Z,101684.25
2022-11-27T15:56:19.000Z,101696.22
2022-11-27T15:58:45.572Z,101688.44
2022-11-27T16:01:12.256Z,101679.19
2022-11-27T16:03:41.132Z,101685.41
2022-11-27T16:06:08.918Z,101689.22
2022-11-27T16:08:36.220Z,101683.78
2022-11-27T16:11:07.531Z,101684.59
2022-11-27T16:13:34.578Z,101688.88
2022-11-27T16:16:03.143Z,101683.94
2022-11-27T16:18:31.784Z,101681.22
2022-11-27T16:21:08.021Z,101671.63
2022-11-27T16:23:37.043Z,101665.44
2022-11-27T16:26:04.111Z,101664.75
2022-11-27T16:28:31.619Z,101653.16
2022-11-27T16:31:02.212Z,101656.63
2022-11-27T16:33:30.207Z,101651.59
2022-11-27T16:35:57.160Z,101646.63
2022-11-27T16:38:23.707Z,101628.78
2022-11-27T16:40:50.360Z,101633.09
2022-11-27T16:43:17.182Z,101634.22
2022-11-27T16:45:43.882Z,101628.00
2022-11-27T16:48:11.644Z,101626.53
2022-11-27T16:50:38.177Z,101627.00
2022-11-27T16:53:04.784Z,101619.22
2022-11-27T16:55:31.874Z,101612.69
2022-11-27T16:57:58.508Z,101616.50
2022-11-27T17:00:25.110Z,101610.31
2022-11-27T17:02:51.684Z,101618.09
2022-11-27T17:05:18.349Z,101604.91
2022-11-27T17:07:44.975Z,101607.94
2022-11-27T17:10:11.691Z,101599.03
2022-11-27T17:12:38.227Z,101596.78
2022-11-27T17:15:05.451Z,101593.28
2022-11-27T17:17:36.828Z,101603.34
2022-11-27T17:20:07.331Z,101591.38
2022-11-27T17:22:33.831Z,101595.63
2022-11-27T17:25:00.550Z,101589.00
2022-11-27T17:27:27.358Z,101588.66
2022-11-27T17:29:53.996Z,101592.06
2022-11-27T17:32:20.674Z,101581.56
2022-11-27T17:34:48.493Z,101585.84
2022-11-27T17:37:16.241Z,101582.81
2022-11-27T17:39:44.074Z,101573.91
2022-11-27T17:42:14.517Z,101581.25
2022-11-27T17:44:42.816Z,101574.22
2022-11-27T17:47:09.747Z,101573.44
2022-11-27T17:49:36.382Z,101560.25
2022-11-27T17:52:06.376Z,101560.69
2022-11-27T17:54:34.243Z,101548.78
2022-11-27T17:57:00.827Z,101554.06
2022-11-27T17:59:27.588Z,101550.91
2022-11-27T18:01:54.213Z,101554.06
2022-11-27T18:04:21.289Z,101548.19
2022-11-27T18:06:47.837Z,101548.53
2022-11-27T18:09:14.456Z,101538.06
2022-11-27T18:11:41.023Z,101538.53
2022-11-27T18:14:07.598Z,101529.94
2022-11-27T18:16:36.918Z,101526.47
2022-11-27T18:19:06.582Z,101522.16
2022-11-27T18:21:33.740Z,101519.47
2022-11-27T18:24:22.514Z,101519.47
2022-11-27T18:29:34.464Z,101513.59
2022-11-27T18:32:01.078Z,101510.13
2022-11-27T18:34:27.788Z,101510.13
2022-11-27T18:36:57.327Z,101504.38
2022-11-27T18:39:24.029Z,101505.47
2022-11-27T18:41:50.555Z,101500.78
2022-11-27T18:44:17.099Z,101499.53
2022-11-27T18:46:43.636Z,101496.03
2022-11-27T18:49:10.165Z,101490.59
2022-11-27T18:51:36.618Z,101489.50
2022-11-27T18:54:04.333Z,101491.41
2022-11-27T18:56:33.291Z,101481.72
2022-11-27T18:59:03.130Z,101475.84
2022-11-27T19:01:35.412Z,101473.94
2022-11-27T19:04:06.471Z,101474.75
2022-11-27T19:06:35.798Z,101468.97
2022-11-27T19:09:03.507Z,101465.47
2022-11-27T19:11:30.944Z,101463.13
2022-11-27T19:13:57.802Z,101458.84
2022-11-27T19:16:29.006Z,101465.03
2022-11-27T19:18:59.165Z,101456.84
2022-11-27T19:21:28.934Z,101462.69
2022-11-27T19:23:57.440Z,101459.53
2022-11-27T19:26:26.839Z,101453.31
2022-11-27T19:28:56.816Z,101449.50
2022-11-27T19:31:24.381Z,101444.53
2022-11-27T19:33:52.946Z,101449.50
2022-11-27T19:36:21.377Z,101448.94
2022-11-27T19:38:53.071Z,101441.97
2022-11-27T19:41:19.641Z,101443.44
2022-11-27T19:43:47.619Z,101438.03
2022-11-27T19:46:14.208Z,101426.41
2022-11-27T19:48:40.786Z,101437.34
2022-11-27T19:51:07.281Z,101423.69
2022-11-27T19:53:34.049Z,101415.59
2022-11-27T19:56:00.638Z,101411.78
2022-11-27T19:58:27.253Z,101414.81
2022-11-27T20:00:54.257Z,101407.84
2022-11-27T20:03:20.819Z,101401.28
2022-11-27T20:05:47.388Z,101400.94
2022-11-27T20:08:13.994Z,101400.16
2022-11-27T20:10:40.530Z,101383.94
2022-11-27T20:13:07.085Z,101385.06
2022-11-27T20:15:33.641Z,101372.31
2022-11-27T20:18:00.204Z,101374.59
2022-11-27T20:20:30.147Z,101371.09
2022-11-27T20:23:00.457Z,101368.38
2022-11-27T20:25:27.345Z,101359.16
2022-11-27T20:27:53.977Z,101354.09
2022-11-27T20:30:20.635Z,101356.72
2022-11-27T20:32:47.467Z,101353.31
2022-11-27T20:35:15.191Z,101353.75
2022-11-27T20:37:41.661Z,101351.38
2022-11-27T20:40:08.630Z,101347.97
2022-11-27T20:42:35.147Z,101355.22
2022-11-27T20:45:05.099Z,101337.88
2022-11-27T20:47:32.906Z,101337.53
2022-11-27T20:49:59.480Z,101327.81
2022-11-27T20:52:26.055Z,101329.41
2022-11-27T20:54:52.991Z,101322.78
2022-11-27T20:57:19.508Z,101316.94
2022-11-27T20:59:46.532Z,101316.56
2022-11-27T21:02:13.253Z,101319.28
2022-11-27T21:04:39.906Z,101318.16
2022-11-27T21:07:07.853Z,101307.69
2022-11-27T21:09:35.598Z,101305.66
2022-11-27T21:12:02.203Z,101308.81
2022-11-27T21:14:28.714Z,101304.97
2022-11-27T21:16:58.043Z,101303.03
2022-11-27T21:19:29.342Z,101293.50
2022-11-27T21:21:56.668Z,101295.38
2022-11-27T21:24:25.729Z,101296.19
2022-11-27T21:26:53.343Z,101296.88
2022-11-27T21:29:25.263Z,101291.00
2022-11-27T21:31:52.935Z,101292.94
2022-11-27T21:34:20.589Z,101286.75
2022-11-27T21:36:47.161Z,101282.91
2022-11-27T21:39:20.318Z,101286.41
2022-11-27T21:41:49.244Z,101282.56
2022-11-27T21:44:17.842Z,101278.38
2022-11-27T21:46:46.570Z,101274.91
2022-11-27T21:49:15.245Z,101267.56
2022-11-27T21:51:41.779Z,101272.19
2022-11-27T21:54:10.522Z,101268.72
2022-11-27T21:56:39.340Z,101265.63
2022-11-27T21:59:07.199Z,101247.53
2022-11-27T22:01:34.275Z,101261.81
2022-11-27T22:04:02.604Z,101261.03
2022-11-27T22:06:34.857Z,101259.44
2022-11-27T22:09:01.350Z,101258.66
2022-11-27T22:11:30.727Z,101251.00
2022-11-27T22:14:00.056Z,101244.44
2022-11-27T22:16:28.974Z,101235.22
2022-11-27T22:18:57.519Z,101223.53
2022-11-27T22:21:24.897Z,101223.97
2022-11-27T22:23:51.417Z,101223.59
2022-11-27T22:26:20.410Z,101222.03
2022-11-27T22:28:47.340Z,101209.31
2022-11-27T22:31:16.686Z,101206.16
2022-11-27T22:33:44.340Z,101201.19
2022-11-27T22:36:14.417Z,101202.34
2022-11-27T22:38:41.611Z,101201.13
2022-11-27T22:41:09.008Z,101194.91
2022-11-27T22:43:35.897Z,101192.19
2022-11-27T22:46:07.708Z,101185.56
2022-11-27T22:48:34.314Z,101176.34
2022-11-27T22:51:00.934Z,101177.13
2022-11-27T22:53:27.952Z,101172.50
2022-11-27T22:55:54.716Z,101172.50
2022-11-27T22:58:21.574Z,101164.03
2022-11-27T23:00:55.430Z,101165.25
2022-11-27T23:03:22.370Z,101183.41
2022-11-27T23:05:49.198Z,101177.22
2022-11-27T23:08:15.694Z,101167.97
2022-11-27T23:10:42.184Z,101163.69
2022-11-27T23:13:09.478Z,101161.00
2022-11-27T23:15:36.020Z,101169.09
2022-11-27T23:18:02.548Z,101162.56
2022-11-27T23:20:29.047Z,101160.63
2022-11-27T23:22:55.510Z,101145.56
2022-11-27T23:25:22.054Z,101154.44
2022-11-27T23:27:48.597Z,101171.44
2022-11-27T23:30:15.833Z,101157.16
2022-11-27T23:32:44.066Z,101156.38
2022-11-27T23:35:12.512Z,101147.88
2022-11-27T23:37:39.027Z,101149.47
2022-11-27T23:40:06.215Z,101140.94
2022-11-27T23:42:35.236Z,101139.78
2022-11-27T23:45:01.855Z,101140.22
2022-11-27T23:47:28.354Z,101133.69
2022-11-27T23:49:54.824Z,101128.72
2022-11-27T23:52:21.379Z,101131.44
2022-11-27T23:54:47.966Z,101124.81
2022-11-27T23:57:14.468Z,101133.34
2022-11-27T23:59:40.903Z,101129.59
